Time;durP1;ratioP1;P1;durP2;ratioP2;P2;SDS_P1;SDS_P2;PMS_P1;PMS_P2;Temp;Humidity;BMP_temperature;BMP_pressure;BME280_temperature;BME280_humidity;BME280_pressure;Samples;Min_cycle;Max_cycle;Signal;HPM_P1;HPM_P2
2024/01/05 00:03:01;;;;;;;7.73;2.20;;;;;3.90;95382.00;;;;8334279;28;20223;-75
2024/01/05 00:07:09;;;;;;;7.33;2.40;;;;;4.00;95378.00;;;;8333546;28;20653;-75
2024/01/05 00:11:17;;;;;;;3.93;2.27;;;;;4.00;95389.00;;;;8333298;28;20216;-75
2024/01/05 00:15:20;;;;;;;9.03;2.40;;;;;4.00;95389.00;;;;8333039;28;20225;-76
2024/01/05 00:19:23;;;;;;;13.63;2.87;;;;;4.00;95390.00;;;;8333791;28;20287;-75
2024/01/05 00:23:28;;;;;;;7.53;2.73;;;;;4.00;95389.00;;;;8332851;28;20239;-75
2024/01/05 00:27:31;;;;;;;4.07;2.30;;;;;4.00;95384.00;;;;8334063;28;20222;-75
2024/01/05 00:31:39;;;;;;;7.70;2.47;;;;;4.00;95399.00;;;;8332316;28;20231;-73
2024/01/05 00:35:42;;;;;;;8.77;2.73;;;;;3.90;95397.00;;;;8333767;28;20185;-75
2024/01/05 00:39:47;;;;;;;5.27;2.30;;;;;3.90;95388.00;;;;8333014;28;20201;-75
2024/01/05 00:43:50;;;;;;;5.53;2.70;;;;;3.80;95380.00;;;;8334018;28;20527;-75
2024/01/05 00:47:53;;;;;;;6.70;2.93;;;;;3.80;95381.00;;;;8332424;28;20287;-75
2024/01/05 00:51:57;;;;;;;5.30;2.80;;;;;3.70;95370.00;;;;8332621;28;20220;-75
2024/01/05 00:56:01;;;;;;;9.00;2.50;;;;;3.70;95375.00;;;;8332004;28;20208;-76
2024/01/05 01:00:08;;;;;;;5.20;2.53;;;;;3.60;95356.00;;;;8333021;28;20654;-76
2024/01/05 01:04:12;;;;;;;6.33;2.87;;;;;3.50;95356.00;;;;8332315;28;20228;-76
2024/01/05 01:08:15;;;;;;;11.13;3.00;;;;;3.40;95349.00;;;;8330604;28;20597;-75
2024/01/05 01:12:20;;;;;;;9.43;3.00;;;;;3.40;95346.00;;;;8332387;28;20257;-75
2024/01/05 01:16:23;;;;;;;6.70;3.00;;;;;3.30;95339.00;;;;8331732;28;20196;-75
2024/01/05 01:20:27;;;;;;;11.53;3.47;;;;;3.30;95330.00;;;;8331813;28;20233;-75
2024/01/05 01:24:30;;;;;;;13.80;3.50;;;;;3.20;95332.00;;;;8332536;28;20652;-75
2024/01/05 01:28:35;;;;;;;8.83;3.30;;;;;3.20;95324.00;;;;8332306;28;20243;-75
2024/01/05 01:32:38;;;;;;;11.53;3.43;;;;;3.20;95326.00;;;;8331869;28;20582;-75
2024/01/05 01:36:41;;;;;;;9.00;2.73;;;;;3.30;95320.00;;;;8331150;28;20288;-75
2024/01/05 01:40:48;;;;;;;13.80;2.93;;;;;3.40;95315.00;;;;8331721;28;20249;-74
2024/01/05 01:44:52;;;;;;;11.90;3.13;;;;;3.50;95303.00;;;;8332213;28;20195;-75
2024/01/05 01:48:56;;;;;;;8.30;2.97;;;;;3.50;95300.00;;;;8331424;28;20251;-75
2024/01/05 01:53:00;;;;;;;6.90;3.30;;;;;3.60;95300.00;;;;8330953;28;20246;-75
2024/01/05 01:57:04;;;;;;;10.70;3.33;;;;;3.60;95297.00;;;;8330939;28;20211;-75
2024/01/05 02:01:09;;;;;;;10.07;3.67;;;;;3.60;95286.00;;;;8331497;28;20232;-74
2024/01/05 02:05:12;;;;;;;9.03;3.20;;;;;3.60;95285.00;;;;8332304;28;20268;-75
2024/01/05 02:09:16;;;;;;;12.13;3.57;;;;;3.60;95285.00;;;;8331586;28;20213;-75
2024/01/05 02:13:19;;;;;;;10.87;3.87;;;;;3.40;95289.00;;;;8331264;28;20619;-76
2024/01/05 02:17:30;;;;;;;4.23;3.40;;;;;3.30;95286.00;;;;8330971;28;20232;-76
2024/01/05 02:21:40;;;;;;;6.63;3.50;;;;;3.20;95288.00;;;;8331057;28;20188;-75
2024/01/05 02:25:45;;;;;;;4.43;3.50;;;;;3.00;95273.00;;;;8331147;28;20281;-76
2024/01/05 02:29:48;;;;;;;10.00;3.40;;;;;3.00;95271.00;;;;8330479;28;20536;-76
2024/01/05 02:33:51;;;;;;;13.73;3.43;;;;;2.90;95271.00;;;;8331854;28;20632;-76
2024/01/05 02:37:54;;;;;;;11.17;3.77;;;;;2.80;95258.00;;;;8335011;28;20539;-76
2024/01/05 02:41:58;;;;;;;7.60;3.40;;;;;2.70;95248.00;;;;8337123;28;20579;-76
2024/01/05 02:46:02;;;;;;;9.37;3.43;;;;;2.80;95256.00;;;;8335903;28;20199;-75
2024/01/05 02:50:06;;;;;;;11.17;3.87;;;;;2.80;95251.00;;;;8336320;28;20630;-74
2024/01/05 02:54:09;;;;;;;10.87;3.97;;;;;2.80;95241.00;;;;8336304;28;20257;-74
2024/01/05 02:58:13;;;;;;;9.90;3.70;;;;;2.80;95227.00;;;;8336575;28;20211;-74
2024/01/05 03:02:16;;;;;;;10.23;4.23;;;;;2.80;95215.00;;;;8332890;22;20243;-73
2024/01/05 03:06:20;;;;;;;7.20;4.30;;;;;2.80;95223.00;;;;8260584;28;20205;-74
2024/01/05 03:10:23;;;;;;;10.03;4.30;;;;;2.90;95225.00;;;;8260305;28;20338;-74
2024/01/05 03:14:28;;;;;;;6.97;4.13;;;;;2.90;95204.00;;;;8260480;28;20294;-73
2024/01/05 03:18:31;;;;;;;16.27;4.93;;;;;2.80;95195.00;;;;8261787;28;20200;-73
2024/01/05 03:22:35;;;;;;;15.00;6.20;;;;;2.90;95185.00;;;;8260925;28;20205;-74
2024/01/05 03:26:38;;;;;;;19.47;5.87;;;;;2.90;95195.00;;;;8262746;28;20203;-73
2024/01/05 03:30:43;;;;;;;10.13;5.63;;;;;2.90;95193.00;;;;8261988;28;20830;-73
2024/01/05 03:34:46;;;;;;;16.73;5.80;;;;;2.90;95190.00;;;;8262544;28;20208;-73
2024/01/05 03:38:50;;;;;;;22.67;6.63;;;;;2.90;95182.00;;;;8259933;28;20605;-73
2024/01/05 03:42:53;;;;;;;12.30;5.93;;;;;2.90;95174.00;;;;8260751;28;20291;-72
2024/01/05 03:46:58;;;;;;;16.73;6.70;;;;;2.90;95176.00;;;;8260277;28;20208;-73
2024/01/05 03:51:01;;;;;;;15.13;6.80;;;;;2.90;95189.00;;;;8260823;28;20782;-73
2024/01/05 03:55:05;;;;;;;21.03;7.60;;;;;2.90;95177.00;;;;8259269;28;20252;-72
2024/01/05 03:59:09;;;;;;;14.33;7.07;;;;;2.90;95171.00;;;;8261647;28;20297;-72
2024/01/05 04:03:13;;;;;;;16.47;7.80;;;;;3.00;95177.00;;;;8246904;28;20291;-72
2024/01/05 04:07:17;;;;;;;24.63;7.37;;;;;3.00;95170.00;;;;8249160;28;20848;-72
2024/01/05 04:11:21;;;;;;;21.77;7.33;;;;;2.90;95144.00;;;;8247675;28;20238;-72
2024/01/05 04:15:24;;;;;;;16.47;7.10;;;;;2.90;95143.00;;;;8248166;28;20199;-72
2024/01/05 04:19:29;;;;;;;19.70;8.70;;;;;3.00;95133.00;;;;8247908;28;20701;-73
2024/01/05 04:23:33;;;;;;;18.00;8.57;;;;;3.00;95127.00;;;;8248983;28;20710;-73
2024/01/05 04:27:36;;;;;;;17.83;8.50;;;;;3.00;95103.00;;;;8247526;28;20201;-73
2024/01/05 04:31:39;;;;;;;22.63;9.30;;;;;3.00;95105.00;;;;8247086;28;20693;-72
2024/01/05 04:35:46;;;;;;;28.60;11.07;;;;;3.00;95095.00;;;;8245150;28;20297;-72
2024/01/05 04:39:49;;;;;;;24.77;10.90;;;;;3.00;95090.00;;;;8240522;28;20205;-73
2024/01/05 04:43:52;;;;;;;26.77;10.60;;;;;3.00;95083.00;;;;8237291;28;20325;-72
2024/01/05 04:47:55;;;;;;;24.60;11.17;;;;;3.10;95083.00;;;;8235753;28;20290;-72
2024/01/05 04:52:00;;;;;;;32.87;11.53;;;;;3.10;95067.00;;;;8236994;28;20680;-72
2024/01/05 04:56:04;;;;;;;27.53;11.13;;;;;3.10;95068.00;;;;8237422;28;20205;-71
2024/01/05 05:00:09;;;;;;;36.40;12.70;;;;;3.10;95073.00;;;;8233248;28;20220;-71
2024/01/05 05:04:16;;;;;;;31.30;12.53;;;;;3.10;95064.00;;;;8234794;28;20244;-72
2024/01/05 05:08:20;;;;;;;35.50;12.43;;;;;3.20;95089.00;;;;8237415;28;20206;-71
2024/01/05 05:12:23;;;;;;;215.93;31.57;;;;;3.20;95095.00;;;;8235133;28;20238;-72
2024/01/05 05:16:26;;;;;;;66.47;14.83;;;;;3.30;95117.00;;;;8236974;28;20199;-72
2024/01/05 05:20:30;;;;;;;103.33;23.03;;;;;3.40;95121.00;;;;8235240;28;20212;-72
2024/01/05 05:24:35;;;;;;;229.50;20.90;;;;;3.40;95114.00;;;;8237025;28;20285;-72
2024/01/05 05:28:38;;;;;;;321.23;23.00;;;;;3.50;95105.00;;;;8233751;28;20209;-72
2024/01/05 05:32:41;;;;;;;174.47;21.07;;;;;3.50;95092.00;;;;8235888;28;20321;-72
2024/01/05 05:36:45;;;;;;;37.20;13.33;;;;;3.50;95080.00;;;;8235594;28;20237;-72
2024/01/05 05:40:49;;;;;;;33.47;13.33;;;;;3.40;95073.00;;;;8235179;28;20295;-73
2024/01/05 05:44:52;;;;;;;36.00;12.50;;;;;3.40;95082.00;;;;8235406;28;20198;-72
2024/01/05 05:48:56;;;;;;;35.83;13.47;;;;;3.40;95084.00;;;;8235324;28;20207;-72
2024/01/05 05:52:59;;;;;;;40.30;12.43;;;;;3.30;95098.00;;;;8234013;28;20309;-72
2024/01/05 05:57:05;;;;;;;28.17;12.20;;;;;3.30;95103.00;;;;8235759;28;20629;-72
2024/01/05 06:01:09;;;;;;;37.37;12.93;;;;;3.30;95107.00;;;;8230582;28;20321;-72
2024/01/05 06:05:13;;;;;;;30.03;11.47;;;;;3.20;95107.00;;;;8234289;28;20209;-72
2024/01/05 06:09:16;;;;;;;32.03;11.80;;;;;3.20;95117.00;;;;8234988;28;20249;-72
2024/01/05 06:13:21;;;;;;;26.60;11.53;;;;;3.10;95111.00;;;;8232841;28;20342;-72
2024/01/05 06:17:24;;;;;;;25.93;11.70;;;;;3.10;95105.00;;;;8236005;28;20908;-72
2024/01/05 06:21:28;;;;;;;37.47;12.17;;;;;3.10;95105.00;;;;8239537;28;20203;-70
2024/01/05 06:25:31;;;;;;;36.70;12.77;;;;;3.10;95092.00;;;;8240160;28;20205;-71
2024/01/05 06:29:36;;;;;;;25.63;11.60;;;;;3.00;95095.00;;;;8237153;28;20762;-72
2024/01/05 06:33:39;;;;;;;24.53;11.27;;;;;3.00;95087.00;;;;8237926;28;21217;-72
2024/01/05 06:37:42;;;;;;;27.23;11.90;;;;;3.10;95099.00;;;;8233023;28;20643;-72
2024/01/05 06:41:51;;;;;;;37.37;14.53;;;;;3.10;95092.00;;;;8231444;28;20208;-71
2024/01/05 06:45:57;;;;;;;32.27;12.43;;;;;3.10;95088.00;;;;8217789;28;20289;-71
2024/01/05 06:50:00;;;;;;;31.37;11.27;;;;;3.10;95087.00;;;;8229840;28;20287;-71
2024/01/05 06:54:04;;;;;;;31.37;12.60;;;;;3.10;95089.00;;;;8236539;28;20230;-71
2024/01/05 06:58:08;;;;;;;27.53;11.50;;;;;3.20;95088.00;;;;8237256;28;20218;-71
2024/01/05 07:02:12;;;;;;;28.67;12.57;;;;;3.20;95079.00;;;;8235185;28;22114;-72
2024/01/05 07:06:16;;;;;;;26.87;11.33;;;;;3.20;95075.00;;;;8234597;28;20214;-72
2024/01/05 07:10:19;;;;;;;34.43;12.57;;;;;3.20;95083.00;;;;8236572;28;20203;-71
2024/01/05 07:14:22;;;;;;;38.40;12.33;;;;;3.30;95104.00;;;;8236817;28;20248;-71
2024/01/05 07:18:27;;;;;;;31.17;11.40;;;;;3.40;95098.00;;;;8233666;28;20286;-70
2024/01/05 07:22:30;;;;;;;30.80;12.13;;;;;3.40;95112.00;;;;8234273;28;20388;-71
2024/01/05 07:26:36;;;;;;;24.97;11.13;;;;;3.40;95112.00;;;;8236653;28;20328;-71
2024/01/05 07:30:42;;;;;;;29.93;11.83;;;;;3.50;95136.00;;;;8231457;28;20209;-71
2024/01/05 07:34:47;;;;;;;25.37;11.00;;;;;3.50;95135.00;;;;8230501;28;20209;-70
2024/01/05 07:38:50;;;;;;;29.53;10.70;;;;;3.50;95149.00;;;;8232238;28;20269;-71
2024/01/05 07:42:53;;;;;;;44.97;13.30;;;;;3.50;95146.00;;;;8231713;28;20214;-71
2024/01/05 07:46:56;;;;;;;31.80;14.30;;;;;3.40;95148.00;;;;8231521;28;20212;-71
2024/01/05 07:51:03;;;;;;;34.17;14.83;;;;;3.40;95152.00;;;;8235123;28;20202;-71
2024/01/05 07:55:09;;;;;;;38.57;15.07;;;;;3.40;95145.00;;;;8268881;28;20240;-71
2024/01/05 07:59:12;;;;;;;38.30;13.17;;;;;3.40;95146.00;;;;8268867;28;20183;-71
2024/01/05 08:03:16;;;;;;;45.97;14.13;;;;;3.50;95134.00;;;;8268631;28;20253;-72
2024/01/05 08:07:21;;;;;;;39.60;14.80;;;;;3.50;95124.00;;;;8267616;28;20197;-72
2024/01/05 08:11:24;;;;;;;33.07;14.27;;;;;3.50;95118.00;;;;8269015;28;20682;-72
2024/01/05 08:15:27;;;;;;;33.70;13.53;;;;;3.50;95118.00;;;;8268058;28;20202;-72
2024/01/05 08:19:30;;;;;;;27.13;11.03;;;;;3.60;95116.00;;;;8267519;28;20305;-74
2024/01/05 08:23:36;;;;;;;27.53;11.53;;;;;3.60;95123.00;;;;8268668;28;20191;-73
2024/01/05 08:27:39;;;;;;;32.73;11.03;;;;;3.70;95125.00;;;;8266963;28;20187;-73
2024/01/05 08:31:45;;;;;;;25.17;10.70;;;;;3.80;95124.00;;;;8266071;28;20564;-70
2024/01/05 08:35:49;;;;;;;25.77;10.03;;;;;3.90;95124.00;;;;8266845;28;20182;-72
2024/01/05 08:39:54;;;;;;;29.33;10.50;;;;;4.00;95130.00;;;;8267168;28;20202;-73
2024/01/05 08:43:57;;;;;;;26.23;10.57;;;;;4.10;95118.00;;;;8267495;28;20191;-73
2024/01/05 08:48:00;;;;;;;22.67;10.00;;;;;4.20;95115.00;;;;8266142;28;20249;-73
2024/01/05 08:52:04;;;;;;;26.60;9.57;;;;;4.30;95124.00;;;;8266064;28;20312;-72
2024/01/05 08:56:09;;;;;;;22.47;8.63;;;;;4.40;95139.00;;;;8266731;28;20285;-73
2024/01/05 09:00:12;;;;;;;19.23;8.27;;;;;4.50;95131.00;;;;8266386;28;20540;-72
2024/01/05 09:04:16;;;;;;;19.07;9.57;;;;;4.60;95147.00;;;;8266535;28;20225;-73
2024/01/05 09:08:19;;;;;;;20.60;9.10;;;;;4.70;95142.00;;;;8267042;28;20698;-74
2024/01/05 09:12:24;;;;;;;16.93;8.10;;;;;4.80;95144.00;;;;8266040;28;20232;-75
2024/01/05 09:16:27;;;;;;;14.07;8.00;;;;;4.90;95154.00;;;;8266271;28;20635;-75
2024/01/05 09:20:30;;;;;;;29.90;13.87;;;;;5.00;95147.00;;;;8266468;28;20277;-74
2024/01/05 09:24:33;;;;;;;16.67;7.90;;;;;5.10;95138.00;;;;8266897;28;20198;-75
2024/01/05 09:28:38;;;;;;;15.67;7.80;;;;;5.10;95122.00;;;;8266014;28;20186;-74
2024/01/05 09:32:41;;;;;;;16.10;6.93;;;;;5.10;95123.00;;;;8264733;28;20762;-75
2024/01/05 09:36:44;;;;;;;20.70;6.07;;;;;5.10;95122.00;;;;8265170;28;20206;-74
2024/01/05 09:40:52;;;;;;;15.47;6.27;;;;;5.10;95124.00;;;;8267485;28;20205;-75
2024/01/05 09:44:58;;;;;;;24.10;8.03;;;;;5.30;95121.00;;;;8267968;28;20562;-76
2024/01/05 09:49:03;;;;;;;18.30;8.63;;;;;5.40;95105.00;;;;8273670;28;20186;-75
2024/01/05 09:53:09;;;;;;;18.23;8.33;;;;;5.50;95101.00;;;;8273031;28;20210;-75
2024/01/05 09:57:17;;;;;;;19.77;7.70;;;;;5.60;95102.00;;;;8272363;28;20183;-75
2024/01/05 10:01:25;;;;;;;15.30;6.63;;;;;5.70;95086.00;;;;8273320;28;20258;-76
2024/01/05 10:05:30;;;;;;;14.30;7.10;;;;;5.70;95077.00;;;;8272466;28;20188;-76
2024/01/05 10:09:48;;;;;;;12.47;6.70;;;;;5.90;95086.00;;;;8272449;28;20194;-76
2024/01/05 10:13:55;;;;;;;19.03;5.90;;;;;5.90;95082.00;;;;8272126;28;20219;-77
2024/01/05 10:18:15;;;;;;;18.70;6.80;;;;;5.90;95087.00;;;;8272926;28;20274;-77
2024/01/05 10:22:22;;;;;;;16.37;6.47;;;;;5.90;95086.00;;;;8267866;28;20624;-76
2024/01/05 10:26:26;;;;;;;17.17;6.90;;;;;5.90;95088.00;;;;8269540;28;20202;-76
2024/01/05 10:30:30;;;;;;;15.57;7.57;;;;;6.10;95079.00;;;;8269505;28;20206;-76
2024/01/05 10:34:35;;;;;;;14.07;6.53;;;;;6.20;95087.00;;;;8270617;28;20552;-76
2024/01/05 10:38:39;;;;;;;16.40;6.53;;;;;6.20;95080.00;;;;8270976;28;20524;-75
2024/01/05 10:42:42;;;;;;;10.33;5.63;;;;;6.30;95086.00;;;;8269472;28;20206;-76
2024/01/05 10:46:46;;;;;;;15.17;7.20;;;;;6.30;95086.00;;;;8268839;28;20285;-77
2024/01/05 10:50:51;;;;;;;17.37;8.93;;;;;6.50;95082.00;;;;8269879;28;20234;-76
2024/01/05 10:54:54;;;;;;;14.00;6.13;;;;;6.50;95074.00;;;;8270156;28;20268;-76
2024/01/05 10:58:57;;;;;;;40.03;14.00;;;;;6.70;95084.00;;;;8268704;28;20292;-74
2024/01/05 11:03:09;;;;;;;15.77;7.33;;;;;7.00;95078.00;;;;8271304;28;20223;-75
2024/01/05 11:07:16;;;;;;;13.80;6.60;;;;;7.20;95076.00;;;;8269260;28;20187;-76
2024/01/05 11:11:33;;;;;;;10.90;6.13;;;;;7.40;95070.00;;;;8268618;28;20692;-76
2024/01/05 11:15:59;;;;;;;11.17;6.70;;;;;7.30;95076.00;;;;8270151;28;20206;-76
2024/01/05 11:20:28;;;;;;;10.30;5.63;;;;;7.20;95068.00;;;;8267182;28;20190;-77
2024/01/05 11:24:34;;;;;;;13.87;8.67;;;;;7.30;95066.00;;;;8268842;28;20191;-78
2024/01/05 11:28:38;;;;;;;10.93;6.37;;;;;7.30;95064.00;;;;8270589;28;20203;-77
2024/01/05 11:32:44;;;;;;;7.40;5.30;;;;;7.30;95056.00;;;;8269675;28;20218;-77
2024/01/05 11:36:58;;;;;;;8.20;5.07;;;;;7.50;95054.00;;;;8269708;28;20186;-77
2024/01/05 11:41:17;;;;;;;8.73;4.67;;;;;7.60;95053.00;;;;8268993;28;20195;-77
2024/01/05 11:45:49;;;;;;;7.80;5.00;;;;;7.70;95046.00;;;;8269237;28;20572;-77
2024/01/05 11:49:52;;;;;;;9.30;4.53;;;;;7.80;95040.00;;;;8268467;28;20198;-77
2024/01/05 11:53:56;;;;;;;9.00;4.40;;;;;7.80;95031.00;;;;8268942;28;20630;-77
2024/01/05 11:58:00;;;;;;;8.43;4.50;;;;;7.90;95041.00;;;;8269335;28;20206;-77
2024/01/05 12:02:04;;;;;;;7.67;4.70;;;;;8.00;95040.00;;;;8268424;28;20672;-77
2024/01/05 12:06:17;;;;;;;5.63;4.20;;;;;8.10;95028.00;;;;8268656;28;20540;-75
2024/01/05 12:10:24;;;;;;;7.22;4.15;;;;;8.10;95034.00;;;;8268758;28;20215;-76
2024/01/05 12:14:30;;;;;;;6.37;3.83;;;;;8.00;95031.00;;;;8267864;28;20237;-77
2024/01/05 12:18:34;;;;;;;6.10;3.27;;;;;8.10;95035.00;;;;8268277;28;20285;-76
2024/01/05 12:22:41;;;;;;;8.93;4.33;;;;;8.10;95029.00;;;;8268034;28;20179;-76
2024/01/05 12:26:45;;;;;;;4.67;3.47;;;;;8.00;95030.00;;;;8268375;28;20226;-76
2024/01/05 12:30:51;;;;;;;11.77;4.67;;;;;8.00;95033.00;;;;8267454;28;20237;-75
2024/01/05 12:34:54;;;;;;;6.13;3.80;;;;;8.00;95026.00;;;;8269593;28;20652;-77
2024/01/05 12:39:08;;;;;;;11.23;4.07;;;;;7.90;95016.00;;;;8267765;28;20686;-74
2024/01/05 12:43:12;;;;;;;9.52;4.53;;;;;7.90;95005.00;;;;8267221;28;20237;-75
2024/01/05 12:47:29;;;;;;;5.40;3.93;;;;;7.90;94994.00;;;;8266578;28;20225;-75
2024/01/05 12:51:32;;;;;;;7.67;4.13;;;;;7.90;94989.00;;;;8266904;28;20275;-77
2024/01/05 12:55:38;;;;;;;6.03;3.42;;;;;8.00;94981.00;;;;8267598;28;20273;-76
2024/01/05 12:59:41;;;;;;;8.57;4.50;;;;;8.00;94983.00;;;;8266681;28;20222;-76
2024/01/05 13:03:56;;;;;;;8.23;4.07;;;;;8.10;94990.00;;;;8267643;28;20257;-74
2024/01/05 13:08:00;;;;;;;9.55;4.20;;;;;8.10;94987.00;;;;8268051;28;20238;-75
2024/01/05 13:12:04;;;;;;;12.83;5.53;;;;;8.20;94995.00;;;;8266922;28;20716;-75
2024/01/05 13:16:07;;;;;;;19.17;8.17;;;;;8.20;94987.00;;;;8267038;28;20698;-75
2024/01/05 13:20:12;;;;;;;9.03;4.70;;;;;8.20;94988.00;;;;8266717;28;20588;-75
2024/01/05 13:24:18;;;;;;;21.73;8.83;;;;;8.20;94984.00;;;;8266483;28;20194;-75
2024/01/05 13:28:21;;;;;;;23.93;7.93;;;;;8.10;94979.00;;;;8266262;28;20289;-75
2024/01/05 13:32:24;;;;;;;9.13;4.90;;;;;8.10;94978.00;;;;8266610;28;20659;-74
2024/01/05 13:36:29;;;;;;;9.67;4.40;;;;;8.10;94986.00;;;;8266238;28;20273;-74
2024/01/05 13:40:32;;;;;;;8.53;4.17;;;;;8.00;94978.00;;;;8266850;28;20776;-74
2024/01/05 13:44:35;;;;;;;11.00;4.93;;;;;8.00;94986.00;;;;8266319;28;20206;-76
2024/01/05 13:48:39;;;;;;;19.33;7.33;;;;;8.00;94983.00;;;;8266515;28;20199;-77
2024/01/05 13:52:43;;;;;;;8.73;4.13;;;;;7.80;94988.00;;;;8267081;28;20199;-77
2024/01/05 13:56:46;;;;;;;5.30;3.57;;;;;7.80;94978.00;;;;8265909;28;20229;-77
2024/01/05 14:00:50;;;;;;;5.37;3.40;;;;;7.70;94974.00;;;;8265265;28;20237;-75
2024/01/05 14:04:54;;;;;;;6.93;4.13;;;;;7.60;94968.00;;;;8266545;28;20525;-75
2024/01/05 14:08:58;;;;;;;8.37;5.37;;;;;7.60;94969.00;;;;8265454;28;20640;-74
2024/01/05 14:13:02;;;;;;;8.73;5.30;;;;;7.50;94971.00;;;;8265174;28;20211;-74
2024/01/05 14:17:05;;;;;;;10.47;4.73;;;;;7.50;94981.00;;;;8265308;28;20632;-74
2024/01/05 14:21:08;;;;;;;24.90;9.47;;;;;7.50;94989.00;;;;8262206;28;20210;-74
2024/01/05 14:25:13;;;;;;;12.17;6.03;;;;;7.40;95002.00;;;;8266258;28;20203;-74
2024/01/05 14:29:17;;;;;;;7.10;4.17;;;;;7.40;95009.00;;;;8265426;28;20206;-74
2024/01/05 14:33:20;;;;;;;9.83;3.90;;;;;7.30;95011.00;;;;8272441;28;20683;-74
2024/01/05 14:37:23;;;;;;;11.97;5.50;;;;;7.30;95021.00;;;;8271699;28;20194;-74
2024/01/05 14:41:28;;;;;;;13.47;5.37;;;;;7.30;95024.00;;;;8270862;28;20253;-73
2024/01/05 14:45:31;;;;;;;8.90;4.82;;;;;7.20;95028.00;;;;8270987;28;20195;-74
2024/01/05 14:49:34;;;;;;;8.10;3.40;;;;;7.10;95029.00;;;;8271988;28;20588;-74
2024/01/05 14:53:39;;;;;;;7.67;4.27;;;;;7.10;95030.00;;;;8271249;28;20199;-74
2024/01/05 14:57:43;;;;;;;5.10;3.63;;;;;7.10;95027.00;;;;8270736;28;20237;-74
2024/01/05 15:01:47;;;;;;;8.33;4.27;;;;;7.00;95023.00;;;;8270805;28;20222;-74
2024/01/05 15:05:50;;;;;;;7.63;4.50;;;;;7.00;95037.00;;;;8270782;28;20191;-74
2024/01/05 15:09:54;;;;;;;12.27;5.77;;;;;6.90;95036.00;;;;8270905;28;20545;-74
2024/01/05 15:13:59;;;;;;;9.10;4.50;;;;;6.90;95033.00;;;;8270102;28;20218;-75
2024/01/05 15:18:03;;;;;;;14.97;5.20;;;;;6.80;95044.00;;;;8271218;28;20672;-74
2024/01/05 15:22:07;;;;;;;10.33;5.77;;;;;6.70;95046.00;;;;8270039;28;20198;-74
2024/01/05 15:26:11;;;;;;;7.60;4.20;;;;;6.60;95044.00;;;;8270817;28;20195;-74
2024/01/05 15:30:17;;;;;;;5.80;4.27;;;;;6.60;95044.00;;;;8269870;28;20242;-74
2024/01/05 15:34:20;;;;;;;5.80;4.20;;;;;6.50;95043.00;;;;8269998;28;20274;-74
2024/01/05 15:38:23;;;;;;;7.90;4.37;;;;;6.50;95046.00;;;;8269756;28;20576;-74
2024/01/05 15:42:27;;;;;;;6.00;4.23;;;;;6.50;95045.00;;;;8269184;28;20195;-74
2024/01/05 15:46:37;;;;;;;9.73;4.00;;;;;6.40;95047.00;;;;8269076;28;20195;-73
2024/01/05 15:50:40;;;;;;;5.80;3.83;;;;;6.40;95050.00;;;;8269720;28;20183;-73
2024/01/05 15:54:43;;;;;;;9.27;3.90;;;;;6.30;95054.00;;;;8268753;28;20317;-73
2024/01/05 15:58:47;;;;;;;5.97;3.37;;;;;6.30;95052.00;;;;8269717;28;20257;-74
2024/01/05 16:02:51;;;;;;;6.00;3.77;;;;;6.20;95052.00;;;;8270219;28;20222;-74
2024/01/05 16:06:55;;;;;;;11.63;4.27;;;;;6.10;95045.00;;;;8268990;28;20194;-74
2024/01/05 16:10:58;;;;;;;8.13;4.20;;;;;6.00;95047.00;;;;8268495;28;20195;-74
2024/01/05 16:15:05;;;;;;;7.60;3.80;;;;;5.90;95038.00;;;;8268783;28;20300;-73
2024/01/05 16:19:10;;;;;;;5.80;3.80;;;;;5.80;95037.00;;;;8268053;28;20198;-74
2024/01/05 16:23:13;;;;;;;7.20;4.90;;;;;5.80;95033.00;;;;8267941;28;20195;-73
2024/01/05 16:27:16;;;;;;;7.10;4.10;;;;;5.80;95033.00;;;;8268425;28;20234;-73
2024/01/05 16:31:20;;;;;;;7.20;4.03;;;;;5.70;95037.00;;;;8268314;28;20647;-73
2024/01/05 16:35:25;;;;;;;7.10;3.90;;;;;5.70;95041.00;;;;8268085;28;20226;-73
2024/01/05 16:39:28;;;;;;;10.60;4.80;;;;;5.70;95024.00;;;;8267030;28;20198;-73
2024/01/05 16:43:31;;;;;;;12.50;4.77;;;;;5.70;95023.00;;;;8268573;28;20294;-72
2024/01/05 16:47:35;;;;;;;8.90;4.73;;;;;5.60;95032.00;;;;8268021;28;20205;-73
2024/01/05 16:51:40;;;;;;;11.60;6.10;;;;;5.60;95030.00;;;;8268236;28;20197;-73
2024/01/05 16:55:43;;;;;;;14.07;6.47;;;;;5.60;95029.00;;;;8266613;28;20237;-73
2024/01/05 16:59:48;;;;;;;11.60;6.20;;;;;5.60;95031.00;;;;8267688;28;20194;-73
2024/01/05 17:03:53;;;;;;;14.30;6.93;;;;;5.60;95031.00;;;;8268285;28;20695;-73
2024/01/05 17:07:58;;;;;;;9.50;5.77;;;;;5.50;95025.00;;;;8266407;28;20257;-73
2024/01/05 17:12:01;;;;;;;10.63;6.57;;;;;5.50;95022.00;;;;8267464;28;20207;-73
2024/01/05 17:16:08;;;;;;;14.20;6.43;;;;;5.40;95017.00;;;;8267916;28;20735;-73
2024/01/05 17:20:12;;;;;;;18.50;7.83;;;;;5.40;95016.00;;;;8266865;28;20273;-73
2024/01/05 17:24:28;;;;;;;16.90;8.10;;;;;5.20;95014.00;;;;8267410;28;20248;-73
2024/01/05 17:28:32;;;;;;;11.60;6.87;;;;;5.20;95012.00;;;;8266940;28;20234;-73
2024/01/05 17:32:35;;;;;;;14.60;7.60;;;;;5.20;95010.00;;;;8266213;28;20632;-73
2024/01/05 17:36:41;;;;;;;15.23;8.23;;;;;5.10;95007.00;;;;8266171;28;20234;-73
2024/01/05 17:40:46;;;;;;;15.17;7.77;;;;;5.00;95012.00;;;;8266843;28;20182;-73
2024/01/05 17:44:50;;;;;;;11.53;7.13;;;;;4.90;95013.00;;;;8267181;28;20516;-74
2024/01/05 17:48:53;;;;;;;12.40;6.83;;;;;4.90;95014.00;;;;8265989;28;20201;-74
2024/01/05 17:52:56;;;;;;;16.90;7.60;;;;;4.80;95002.00;;;;8267138;28;20194;-74
2024/01/05 17:57:04;;;;;;;13.93;7.73;;;;;4.80;95014.00;;;;8266876;28;20316;-74
2024/01/05 18:01:07;;;;;;;14.73;7.77;;;;;4.70;95018.00;;;;8265873;28;20535;-74
2024/01/05 18:05:14;;;;;;;13.37;7.00;;;;;4.60;95014.00;;;;8267124;28;20214;-74
2024/01/05 18:09:18;;;;;;;15.20;7.67;;;;;4.60;95012.00;;;;8272653;28;20213;-74
2024/01/05 18:13:23;;;;;;;12.90;7.13;;;;;4.50;95017.00;;;;8271927;28;20199;-74
2024/01/05 18:17:26;;;;;;;14.20;7.20;;;;;4.40;95019.00;;;;8272016;28;20223;-74
2024/01/05 18:21:30;;;;;;;10.80;6.60;;;;;4.40;95016.00;;;;8272137;28;20245;-73
2024/01/05 18:25:33;;;;;;;16.10;6.40;;;;;4.40;95017.00;;;;8271973;28;20715;-75
2024/01/05 18:29:37;;;;;;;13.77;7.43;;;;;4.30;95018.00;;;;8271146;28;20206;-74
2024/01/05 18:33:41;;;;;;;15.47;7.50;;;;;4.20;95011.00;;;;8271306;28;20198;-74
2024/01/05 18:37:44;;;;;;;10.33;6.07;;;;;4.20;95015.00;;;;8271669;28;20225;-74
2024/01/05 18:41:48;;;;;;;14.90;7.40;;;;;4.20;95026.00;;;;8271529;28;20202;-74
2024/01/05 18:45:52;;;;;;;16.17;7.43;;;;;4.10;95030.00;;;;8270782;28;20201;-75
2024/01/05 18:49:56;;;;;;;13.70;6.70;;;;;4.10;95017.00;;;;8272669;28;20273;-74
2024/01/05 18:54:01;;;;;;;18.40;7.93;;;;;4.10;95028.00;;;;8271257;28;20210;-74
2024/01/05 18:58:04;;;;;;;12.43;6.83;;;;;4.20;95030.00;;;;8271095;28;20233;-74
2024/01/05 19:02:08;;;;;;;18.23;8.37;;;;;4.30;95034.00;;;;8270145;28;20233;-74
2024/01/05 19:06:16;;;;;;;12.33;7.83;;;;;4.50;95043.00;;;;8271101;28;20198;-74
2024/01/05 19:10:19;;;;;;;12.37;7.10;;;;;4.60;95036.00;;;;8270388;28;20192;-75
2024/01/05 19:14:23;;;;;;;14.07;7.50;;;;;4.60;95028.00;;;;8270140;28;20226;-74
2024/01/05 19:18:29;;;;;;;15.13;7.60;;;;;4.70;95027.00;;;;8269437;28;20228;-74
2024/01/05 19:22:37;;;;;;;17.83;8.97;;;;;4.80;95027.00;;;;8270620;28;20198;-74
2024/01/05 19:26:41;;;;;;;13.07;7.87;;;;;4.90;95028.00;;;;8270380;28;20580;-74
2024/01/05 19:30:44;;;;;;;14.93;7.43;;;;;4.90;95035.00;;;;8269511;28;20241;-74
2024/01/05 19:34:53;;;;;;;14.20;8.07;;;;;5.00;95028.00;;;;8269615;28;20218;-74
2024/01/05 19:38:56;;;;;;;15.57;8.13;;;;;5.10;95031.00;;;;8270436;28;20325;-74
2024/01/05 19:42:59;;;;;;;19.97;9.03;;;;;5.10;95031.00;;;;8269417;28;20206;-74
2024/01/05 19:47:02;;;;;;;14.40;8.50;;;;;5.10;95025.00;;;;8269104;28;20202;-74
2024/01/05 19:51:11;;;;;;;19.07;9.30;;;;;5.20;95030.00;;;;8270643;28;20198;-74
2024/01/05 19:55:15;;;;;;;15.33;9.13;;;;;5.30;95042.00;;;;8268699;28;20187;-74
2024/01/05 19:59:19;;;;;;;19.37;10.90;;;;;5.30;95038.00;;;;8269245;28;20623;-75
2024/01/05 20:03:23;;;;;;;22.53;10.23;;;;;5.40;95036.00;;;;8270491;28;20258;-74
2024/01/05 20:07:28;;;;;;;29.20;11.83;;;;;5.50;95037.00;;;;8268923;28;20642;-74
2024/01/05 20:11:31;;;;;;;21.00;11.33;;;;;5.50;95035.00;;;;8270302;28;20191;-74
2024/01/05 20:15:35;;;;;;;19.93;10.20;;;;;5.50;95039.00;;;;8268502;28;20214;-74
2024/01/05 20:19:38;;;;;;;24.83;11.17;;;;;5.50;95036.00;;;;8268631;28;20583;-74
2024/01/05 20:23:42;;;;;;;27.43;12.57;;;;;5.50;95039.00;;;;8268306;28;20525;-74
2024/01/05 20:27:47;;;;;;;22.53;11.23;;;;;5.50;95038.00;;;;8265919;28;20221;-74